createdAt,value
2023-01-27T04:04:29.720Z,30.75
2023-01-27T04:05:31.696Z,27.99
2023-01-27T04:06:36.348Z,28.93
2023-01-27T04:07:38.352Z,30.72
2023-01-27T04:08:44.232Z,29.38
2023-01-27T04:09:46.384Z,28.39
2023-01-27T04:10:48.463Z,30.13
2023-01-27T04:11:50.751Z,28.77
2023-01-27T04:12:52.668Z,29.47
2023-01-27T04:13:54.529Z,29.49
2023-01-27T04:14:57.271Z,30.08
2023-01-27T04:15:59.221Z,32.09
2023-01-27T04:17:07.449Z,32.07
2023-01-27T04:18:09.476Z,31.21
2023-01-27T04:19:13.728Z,31.54
2023-01-27T04:20:16.485Z,31.13
2023-01-27T04:21:18.373Z,30.78
2023-01-27T04:22:20.291Z,32.41
2023-01-27T04:23:22.779Z,31.58
2023-01-27T04:24:25.073Z,30.17
2023-01-27T04:25:27.168Z,32.32
2023-01-27T04:26:30.022Z,29.99
2023-01-27T04:27:31.905Z,31.99
2023-01-27T04:28:43.766Z,31.92
2023-01-27T04:29:39.948Z,31.78
2023-01-27T04:30:42.162Z,31.43
2023-01-27T04:31:44.151Z,34.25
2023-01-27T04:32:46.299Z,33.65
2023-01-27T04:33:48.585Z,35.73
2023-01-27T04:34:50.528Z,35.61
2023-01-27T04:35:52.520Z,35.41
2023-01-27T04:36:55.631Z,35.47
2023-01-27T04:37:57.524Z,35.58
2023-01-27T04:38:59.726Z,34.28
2023-01-27T04:40:01.612Z,34.01
2023-01-27T04:41:03.711Z,33.78
2023-01-27T04:42:05.786Z,34.29
2023-01-27T04:43:07.672Z,36.29
2023-01-27T04:44:09.791Z,36.87
2023-01-27T04:45:12.129Z,35.27
2023-01-27T04:46:14.409Z,36.23
2023-01-27T04:47:16.444Z,36.14
2023-01-27T04:48:18.324Z,35.69
2023-01-27T04:49:20.616Z,34.63
2023-01-27T04:50:22.737Z,34.78
2023-01-27T04:51:24.639Z,35.63
2023-01-27T04:52:27.608Z,34.35
2023-01-27T04:53:29.584Z,36.08
2023-01-27T04:54:31.512Z,35.95
2023-01-27T04:55:34.185Z,35.27
2023-01-27T04:56:39.001Z,37.27
2023-01-27T04:57:41.075Z,34.80
2023-01-27T04:58:42.948Z,38.19
2023-01-27T04:59:45.244Z,35.17
2023-01-27T05:00:47.421Z,36.21
2023-01-27T05:01:49.896Z,34.76
2023-01-27T05:02:51.890Z,35.64
2023-01-27T05:03:55.210Z,35.23
2023-01-27T05:04:57.138Z,36.81
2023-01-27T05:05:59.114Z,35.44
2023-01-27T05:07:01.279Z,36.59
2023-01-27T05:08:04.681Z,35.57
2023-01-27T05:09:06.620Z,36.27
2023-01-27T05:10:10.314Z,35.38
2023-01-27T05:11:13.013Z,33.03
2023-01-27T05:12:15.031Z,37.81
2023-01-27T05:13:18.856Z,35.54
2023-01-27T05:14:20.778Z,34.78
2023-01-27T05:15:24.517Z,37.75
2023-01-27T05:16:26.757Z,36.43
2023-01-27T05:17:33.455Z,31.92
2023-01-27T05:18:36.104Z,32.62
2023-01-27T05:19:37.994Z,32.03
2023-01-27T05:20:40.351Z,31.05
2023-01-27T05:21:42.228Z,31.47
2023-01-27T05:22:44.128Z,30.91
2023-01-27T05:23:46.234Z,32.47
2023-01-27T05:24:48.264Z,30.34
2023-01-27T05:25:50.562Z,31.13
2023-01-27T05:26:52.535Z,32.43
2023-01-27T05:27:54.430Z,32.05
2023-01-27T05:28:58.891Z,33.70
2023-01-27T05:30:01.753Z,30.95
2023-01-27T05:31:10.505Z,31.54
2023-01-27T05:32:12.524Z,32.22
2023-01-27T05:33:15.538Z,33.82
2023-01-27T05:34:17.580Z,32.47
2023-01-27T05:35:19.701Z,33.07
2023-01-27T05:36:23.383Z,33.92
2023-01-27T05:37:26.284Z,35.42
2023-01-27T05:38:29.317Z,34.05
2023-01-27T05:39:31.462Z,34.09
2023-01-27T05:40:33.535Z,35.30
2023-01-27T05:41:37.029Z,31.66
2023-01-27T05:42:39.108Z,30.67
2023-01-27T05:43:43.229Z,29.65
2023-01-27T05:44:45.202Z,29.88
2023-01-27T05:45:47.269Z,28.60
2023-01-27T05:46:49.398Z,29.09
2023-01-27T05:47:51.937Z,28.37
2023-01-27T05:48:56.270Z,28.30
2023-01-27T05:49:58.190Z,28.66
2023-01-27T05:51:00.386Z,29.11
2023-01-27T05:52:02.412Z,29.18
2023-01-27T05:53:04.472Z,28.75
2023-01-27T05:54:07.337Z,27.09
2023-01-27T05:55:09.637Z,26.70
2023-01-27T05:56:13.877Z,26.61
2023-01-27T05:57:15.818Z,24.59
2023-01-27T05:58:19.284Z,25.90
2023-01-27T05:59:21.354Z,25.23
2023-01-27T06:00:23.680Z,25.49
2023-01-27T06:02:38.414Z,24.26
2023-01-27T06:03:41.776Z,24.28
2023-01-27T06:04:44.018Z,24.14
2023-01-27T06:05:51.360Z,22.29
2023-01-27T06:06:53.382Z,22.27
2023-01-27T06:07:57.457Z,23.05
2023-01-27T06:08:59.920Z,23.05
2023-01-27T06:10:01.897Z,23.01
2023-01-27T06:11:06.154Z,22.96
2023-01-27T06:12:08.085Z,24.95
2023-01-27T06:13:10.072Z,23.78
2023-01-27T06:14:12.207Z,25.21
2023-01-27T06:15:14.721Z,26.03
2023-01-27T06:16:20.157Z,24.95
2023-01-27T06:17:22.190Z,25.27
2023-01-27T06:18:24.245Z,25.65
2023-01-27T06:19:26.240Z,25.24
2023-01-27T06:20:28.195Z,25.39
2023-01-27T06:21:30.074Z,24.63
2023-01-27T06:22:32.344Z,25.39
2023-01-27T06:23:34.820Z,25.35
2023-01-27T06:24:36.807Z,23.49
2023-01-27T06:25:41.652Z,24.52
2023-01-27T06:26:43.689Z,24.09
2023-01-27T06:27:45.557Z,24.09
2023-01-27T06:28:47.762Z,23.03
2023-01-27T06:29:49.717Z,24.03
2023-01-27T06:30:51.742Z,24.67
2023-01-27T06:31:53.746Z,24.15
2023-01-27T06:32:55.808Z,23.15
2023-01-27T06:33:59.426Z,23.59
2023-01-27T06:35:02.834Z,25.44
2023-01-27T06:36:08.314Z,25.52
2023-01-27T06:37:10.275Z,23.27
2023-01-27T06:38:13.080Z,25.72
2023-01-27T06:39:14.984Z,26.11
2023-01-27T06:40:17.647Z,24.95
2023-01-27T06:41:19.897Z,24.67
2023-01-27T06:42:21.916Z,26.15
2023-01-27T06:43:25.507Z,25.97
2023-01-27T06:44:27.389Z,25.09
2023-01-27T06:45:29.793Z,25.73
2023-01-27T06:46:31.892Z,25.93
2023-01-27T06:47:33.893Z,24.85
2023-01-27T06:48:36.021Z,24.65
2023-01-27T06:49:38.039Z,25.13
2023-01-27T06:50:40.227Z,23.84
2023-01-27T06:51:42.304Z,24.82
2023-01-27T06:52:44.203Z,25.53
2023-01-27T06:53:46.965Z,24.79
2023-01-27T06:54:48.846Z,26.06
2023-01-27T06:55:56.220Z,25.51
2023-01-27T06:56:58.287Z,27.19
2023-01-27T06:58:03.679Z,25.05
2023-01-27T06:59:05.602Z,24.74
2023-01-27T07:00:09.475Z,26.35
2023-01-27T07:01:11.540Z,25.73
2023-01-27T07:02:13.710Z,27.21
2023-01-27T07:03:16.789Z,24.79
2023-01-27T07:04:18.798Z,26.21
2023-01-27T07:05:20.691Z,25.74
2023-01-27T07:06:22.710Z,25.39
2023-01-27T07:07:24.639Z,27.44
2023-01-27T07:08:26.685Z,24.64
2023-01-27T07:09:28.562Z,28.76
2023-01-27T07:10:30.899Z,28.56
2023-01-27T07:11:32.775Z,27.29
2023-01-27T07:12:35.292Z,29.50
2023-01-27T07:13:37.182Z,28.58
2023-01-27T07:14:39.078Z,26.60
2023-01-27T07:15:45.372Z,27.13
2023-01-27T07:16:47.402Z,30.49
2023-01-27T07:17:49.390Z,29.34
2023-01-27T07:18:51.314Z,29.39
2023-01-27T07:19:53.357Z,27.58
2023-01-27T07:20:55.341Z,30.37
2023-01-27T07:21:57.333Z,28.54
2023-01-27T07:23:01.598Z,28.59
2023-01-27T07:24:05.806Z,26.59
2023-01-27T07:25:08.151Z,29.62
2023-01-27T07:26:24.337Z,28.53
2023-01-27T07:27:14.742Z,27.16
2023-01-27T07:28:16.776Z,28.12
2023-01-27T07:29:18.989Z,29.06
2023-01-27T07:30:21.121Z,28.30
2023-01-27T07:31:23.364Z,29.12
2023-01-27T07:32:27.344Z,28.12
2023-01-27T07:33:29.415Z,27.74
2023-01-27T07:34:31.577Z,29.07
2023-01-27T07:35:36.132Z,27.43
2023-01-27T07:36:38.291Z,28.50
2023-01-27T07:37:40.165Z,28.70
2023-01-27T07:38:42.354Z,26.91
2023-01-27T07:39:44.236Z,27.65
2023-01-27T07:40:47.396Z,29.83
2023-01-27T07:41:49.716Z,28.52
2023-01-27T07:42:51.973Z,28.21
2023-01-27T07:43:53.955Z,27.07
2023-01-27T07:44:55.925Z,28.10
2023-01-27T07:45:59.056Z,28.00
2023-01-27T07:47:02.731Z,27.19
2023-01-27T12:20:40.537Z,15.61
2023-01-27T12:21:46.233Z,15.12
2023-01-27T12:22:53.627Z,15.20
2023-01-27T12:23:56.908Z,15.58
2023-01-27T12:25:06.475Z,14.57
2023-01-27T12:26:10.800Z,14.98
2023-01-27T12:27:28.593Z,16.48
2023-01-27T12:28:42.832Z,16.97
2023-01-27T12:29:54.695Z,16.60
2023-01-27T12:31:15.571Z,16.32
2023-01-27T12:32:23.998Z,16.72
2023-01-27T12:33:32.438Z,16.41
2023-01-27T12:34:36.572Z,16.63
2023-01-27T12:35:39.800Z,17.07
2023-01-27T12:36:43.926Z,16.90
2023-01-27T12:37:49.404Z,15.69
2023-01-27T12:38:54.339Z,17.39
2023-01-27T12:40:00.135Z,16.80
2023-01-27T12:41:06.376Z,17.94
2023-01-27T12:42:40.772Z,17.07
2023-01-27T12:43:58.091Z,17.61
2023-01-27T12:45:00.690Z,17.44
2023-01-27T12:46:21.930Z,16.44
2023-01-27T12:47:29.079Z,18.74
2023-01-27T12:48:32.712Z,19.13
2023-01-27T12:49:37.503Z,18.96
2023-01-27T12:50:43.626Z,17.81
2023-01-27T12:51:52.123Z,18.49
2023-01-27T12:53:15.215Z,18.59
2023-01-27T12:54:27.579Z,17.85
2023-01-27T12:55:33.387Z,18.52
2023-01-27T12:56:36.910Z,17.43
2023-01-27T12:57:42.785Z,18.06
2023-01-27T12:58:58.646Z,17.79
2023-01-27T13:00:01.093Z,17.91
2023-01-27T13:01:06.697Z,18.65
2023-01-27T13:02:24.400Z,18.77
2023-01-27T13:03:27.982Z,17.91
2023-01-27T13:04:30.929Z,18.04
2023-01-27T13:05:39.014Z,17.86
2023-01-27T13:07:03.348Z,18.41
2023-01-27T13:08:09.651Z,18.62
2023-01-27T13:09:27.226Z,19.25
2023-01-27T13:10:32.214Z,18.38
2023-01-27T13:11:41.971Z,17.64
2023-01-27T13:15:10.625Z,17.30
2023-01-27T13:16:30.072Z,16.23
2023-01-27T13:17:38.952Z,18.18
2023-01-27T13:18:40.975Z,17.96
2023-01-27T13:19:46.543Z,19.69
2023-01-27T13:20:52.326Z,19.93
2023-01-27T13:21:55.329Z,19.87
2023-01-27T13:23:18.229Z,19.06
2023-01-27T13:24:33.827Z,19.72
2023-01-27T13:25:45.810Z,18.03
2023-01-27T13:26:50.966Z,18.89
2023-01-27T13:27:56.636Z,18.95
2023-01-27T13:29:19.018Z,18.41
2023-01-27T13:30:40.068Z,19.46
2023-01-27T13:31:54.684Z,20.19
2023-01-27T13:33:00.557Z,19.22
2023-01-27T13:34:12.561Z,18.58
2023-01-27T13:35:33.233Z,19.29
2023-01-27T13:38:08.007Z,22.07
2023-01-27T13:39:47.507Z,21.42
2023-01-27T13:40:52.774Z,21.98
2023-01-27T13:42:10.639Z,21.99
2023-01-27T13:43:31.756Z,19.11
2023-01-27T13:44:37.455Z,20.86
2023-01-27T13:45:55.159Z,20.93
2023-01-27T13:47:04.512Z,20.38
2023-01-27T13:48:16.532Z,20.47
2023-01-27T13:49:34.505Z,21.01
2023-01-27T13:50:43.309Z,21.34
2023-01-27T13:51:45.531Z,22.34
2023-01-27T13:52:51.003Z,21.37
2023-01-27T13:54:01.852Z,22.34
2023-01-27T13:55:04.944Z,21.60
2023-01-27T13:56:16.991Z,22.65
2023-01-27T13:57:39.822Z,23.13
2023-01-27T13:59:08.072Z,19.90
2023-01-27T14:00:14.363Z,20.34
2023-01-27T14:01:26.069Z,20.56
2023-01-27T14:02:47.093Z,19.52
2023-01-27T14:03:58.964Z,19.94
2023-01-27T14:05:18.828Z,20.38
2023-01-27T14:06:33.491Z,20.48
2023-01-27T14:07:42.311Z,19.84
2023-01-27T14:10:22.340Z,20.33
2023-01-27T14:11:44.734Z,19.83
2023-01-27T14:13:25.886Z,19.76
2023-01-27T14:14:57.445Z,19.26
2023-01-27T14:18:17.359Z,17.52
2023-01-27T14:19:46.144Z,18.99
2023-01-27T14:21:09.033Z,16.62
2023-01-27T14:23:37.540Z,18.85
2023-01-27T14:24:55.218Z,16.53
2023-01-27T14:26:06.696Z,17.55
2023-01-27T14:28:24.823Z,17.31
2023-01-27T14:29:36.279Z,17.63
2023-01-27T14:30:43.375Z,16.64
2023-01-27T14:31:52.192Z,17.94
2023-01-27T14:33:15.850Z,18.01
2023-01-27T14:34:36.381Z,17.54
2023-01-27T14:35:57.557Z,17.50
2023-01-27T14:37:12.656Z,16.74
2023-01-27T14:38:33.136Z,18.48
2023-01-27T14:39:59.218Z,17.44
2023-01-27T14:41:40.274Z,18.84
2023-01-27T14:42:48.954Z,17.93
2023-01-27T14:44:00.591Z,17.42
2023-01-27T14:45:27.642Z,17.57
2023-01-27T14:46:48.660Z,17.51
2023-01-27T14:48:24.694Z,17.13
2023-01-27T14:49:33.451Z,18.03
2023-01-27T14:51:03.428Z,17.52
2023-01-27T14:52:12.010Z,17.56
2023-01-27T14:53:45.316Z,18.72
2023-01-27T14:55:03.032Z,17.47
2023-01-27T14:56:28.723Z,18.35
2023-01-27T14:57:49.925Z,20.13
2023-01-27T14:59:19.532Z,19.26
2023-01-27T15:00:40.440Z,20.59
2023-01-27T15:01:46.243Z,19.46
2023-01-27T15:02:54.996Z,18.62
2023-01-27T15:04:27.035Z,19.11
2023-01-27T15:10:39.118Z,17.88
2023-01-27T15:12:14.011Z,19.41
2023-01-27T15:13:25.657Z,20.24
2023-01-27T15:14:55.879Z,19.94
2023-01-27T15:16:04.521Z,19.51
2023-01-27T15:17:31.850Z,19.71
2023-01-27T15:18:55.846Z,19.27
2023-01-27T15:20:13.685Z,19.89
2023-01-27T15:21:35.162Z,20.34
2023-01-27T15:23:04.367Z,21.08
2023-01-27T15:24:45.165Z,20.11
2023-01-27T15:25:50.937Z,20.98
2023-01-27T15:26:54.055Z,21.04
2023-01-27T15:27:57.340Z,19.93
2023-01-27T15:29:00.173Z,21.62
2023-01-27T15:30:17.058Z,20.79
2023-01-27T15:31:22.858Z,20.41
2023-01-27T15:32:27.717Z,21.06
2023-01-27T15:33:54.678Z,21.32
2023-01-27T15:35:16.726Z,22.04
2023-01-27T15:36:31.509Z,21.74
2023-01-27T15:37:38.329Z,21.23
2023-01-27T15:38:40.391Z,21.26
2023-01-27T15:40:07.759Z,21.73
2023-01-27T15:41:15.087Z,21.22
2023-01-27T15:42:18.580Z,22.30
2023-01-27T15:43:22.244Z,21.95
2023-01-27T15:44:31.519Z,20.54
2023-01-27T15:45:38.612Z,20.93
2023-01-27T15:46:46.889Z,21.88
2023-01-27T15:48:02.463Z,21.58
2023-01-27T15:49:08.231Z,21.26
2023-01-27T15:50:18.309Z,21.05
2023-01-27T15:51:24.246Z,20.70
2023-01-27T15:52:36.009Z,21.09
2023-01-27T15:53:41.741Z,20.63
2023-01-27T19:43:16.216Z,28.02
2023-01-27T19:44:18.085Z,28.69
2023-01-27T19:45:21.061Z,28.15
2023-01-27T19:46:24.181Z,28.39
2023-01-27T19:47:26.269Z,26.85
2023-01-27T19:48:28.164Z,26.63
2023-01-27T19:49:30.129Z,25.68
2023-01-27T19:50:32.431Z,25.14
2023-01-27T19:51:34.322Z,23.91
2023-01-27T19:52:36.182Z,25.16
2023-01-27T19:53:38.065Z,24.56
2023-01-27T19:54:39.985Z,24.46
2023-01-27T19:55:42.551Z,25.30
2023-01-27T19:56:45.046Z,26.77
2023-01-27T19:57:48.382Z,23.35
2023-01-27T19:58:52.171Z,23.51
2023-01-27T19:59:54.667Z,25.97
2023-01-27T20:00:56.725Z,24.29
2023-01-27T20:01:59.050Z,23.49
2023-01-27T20:03:02.198Z,24.45
2023-01-27T20:04:04.343Z,24.85
2023-01-27T20:05:07.921Z,24.15
2023-01-27T20:06:16.635Z,24.36
2023-01-27T20:07:18.533Z,24.76
2023-01-27T20:08:20.500Z,25.71
2023-01-27T20:09:22.399Z,25.62
2023-01-27T20:11:40.956Z,26.44
2023-01-27T20:13:05.055Z,24.49
2023-01-27T20:14:16.993Z,24.32
2023-01-27T20:15:19.642Z,23.02
2023-01-27T20:16:22.609Z,21.73
2023-01-27T20:17:25.058Z,23.15
2023-01-27T20:18:26.941Z,23.46
2023-01-27T20:19:28.916Z,23.13
2023-01-27T20:20:31.096Z,23.57
2023-01-27T20:21:33.069Z,21.99
2023-01-27T20:22:35.994Z,23.19
2023-01-27T20:23:37.886Z,22.01
2023-01-27T20:24:39.744Z,22.29
2023-01-27T20:25:42.163Z,21.77
2023-01-27T20:26:44.868Z,23.33
2023-01-27T20:27:52.316Z,21.23
2023-01-27T20:28:54.575Z,20.86
2023-01-27T20:29:56.562Z,21.65
2023-01-27T20:30:58.938Z,20.19
2023-01-27T20:32:01.942Z,21.94
2023-01-27T20:33:04.513Z,21.17
2023-01-27T20:34:06.581Z,22.01
2023-01-27T20:35:09.067Z,22.14
2023-01-27T20:36:14.583Z,21.73
2023-01-27T20:37:16.512Z,21.88
2023-01-27T20:38:18.390Z,21.43
2023-01-27T20:39:21.729Z,21.20
2023-01-27T20:40:26.633Z,20.21
2023-01-27T20:41:28.562Z,20.58
2023-01-27T20:42:30.433Z,21.27
2023-01-27T20:43:35.707Z,20.81
2023-01-27T20:44:37.524Z,20.71
2023-01-27T20:45:39.446Z,22.46
2023-01-27T20:46:41.576Z,21.84
2023-01-27T20:47:48.992Z,20.96
2023-01-27T20:49:43.342Z,20.80
2023-01-27T20:50:47.556Z,21.01
2023-01-27T20:51:49.568Z,20.79
2023-01-27T20:52:51.641Z,20.03
2023-01-27T20:53:54.134Z,23.32
2023-01-27T20:54:56.010Z,21.19
2023-01-27T20:56:04.641Z,20.79
2023-01-27T20:57:06.595Z,19.81
2023-01-27T20:58:09.620Z,20.75
2023-01-27T20:59:11.506Z,20.79
2023-01-27T21:00:20.027Z,21.49
2023-01-27T21:01:23.102Z,21.41
2023-01-27T21:02:26.260Z,19.92
2023-01-27T21:03:28.275Z,20.54
2023-01-27T21:04:30.237Z,20.84
2023-01-27T21:05:32.144Z,21.55
2023-01-27T21:06:34.546Z,20.99
2023-01-27T21:07:36.526Z,20.39
2023-01-27T21:08:38.990Z,22.57
2023-01-27T21:09:40.973Z,20.43
2023-01-27T21:10:42.960Z,20.28
2023-01-27T21:11:44.821Z,22.15
2023-01-27T21:12:46.694Z,21.27
2023-01-27T21:13:50.725Z,20.67
2023-01-27T21:14:52.648Z,21.64
2023-01-27T21:15:54.864Z,21.23
2023-01-27T21:16:57.130Z,19.89
2023-01-27T21:17:59.187Z,20.66
2023-01-27T21:19:02.485Z,20.51
2023-01-27T21:20:06.415Z,21.31
2023-01-27T21:21:23.601Z,21.98
2023-01-27T21:22:25.496Z,21.75
2023-01-27T21:23:27.862Z,20.31
2023-01-27T21:24:30.805Z,21.49
2023-01-27T21:25:37.675Z,21.13
2023-01-27T21:26:39.819Z,21.55
2023-01-27T21:27:41.736Z,20.95
2023-01-27T21:28:45.403Z,20.57
2023-01-27T21:29:47.473Z,20.11
2023-01-27T21:30:49.572Z,21.66
2023-01-27T21:31:51.522Z,21.15
2023-01-27T21:32:53.598Z,22.65
2023-01-27T21:33:58.095Z,23.09
2023-01-27T21:35:00.003Z,21.75
2023-01-27T21:36:03.532Z,22.38
2023-01-27T21:37:05.476Z,21.98
2023-01-27T21:38:07.666Z,20.16
2023-01-27T21:39:09.660Z,20.56
2023-01-27T21:40:13.107Z,19.37
2023-01-27T21:41:17.511Z,20.18
2023-01-27T21:42:19.436Z,20.20
2023-01-27T21:43:23.660Z,20.75
2023-01-27T21:45:38.619Z,22.14
2023-01-27T21:46:40.786Z,21.37
2023-01-27T21:47:42.882Z,21.03
2023-01-27T21:48:44.778Z,21.53
2023-01-27T21:49:47.014Z,21.63
2023-01-27T21:50:52.344Z,22.13
2023-01-27T21:51:54.483Z,23.12
2023-01-27T21:52:56.452Z,22.76
2023-01-27T21:53:58.358Z,23.20
2023-01-27T21:55:03.303Z,22.96
2023-01-27T21:56:07.571Z,22.23
2023-01-27T21:57:10.880Z,22.08
2023-01-27T21:58:12.767Z,23.40
2023-01-27T21:59:15.556Z,23.99
2023-01-27T22:00:21.469Z,23.77
2023-01-27T22:01:23.525Z,24.43
2023-01-27T22:02:26.179Z,23.58
2023-01-27T22:03:30.096Z,25.32
2023-01-27T22:04:32.105Z,25.80
2023-01-27T22:05:36.305Z,26.09
2023-01-27T22:06:39.300Z,26.11
2023-01-27T22:07:41.291Z,26.19
2023-01-27T22:08:44.102Z,26.45
2023-01-27T22:09:46.567Z,26.12
2023-01-27T22:10:48.632Z,26.16
2023-01-27T22:11:50.499Z,25.93
2023-01-27T22:12:58.640Z,25.95
2023-01-27T22:14:00.664Z,27.05
2023-01-27T22:15:03.089Z,27.23
2023-01-27T22:16:06.588Z,26.68
2023-01-27T22:17:09.254Z,27.30
2023-01-27T22:18:11.137Z,27.72
2023-01-27T22:19:13.001Z,25.83
2023-01-27T22:20:16.471Z,26.68
2023-01-27T22:21:18.364Z,25.49
2023-01-27T22:22:20.243Z,27.37
2023-01-27T22:23:22.279Z,24.45
2023-01-27T22:24:24.188Z,25.98
2023-01-27T22:25:27.763Z,24.57
2023-01-27T22:26:29.773Z,25.68
2023-01-27T22:27:31.625Z,25.46
2023-01-27T22:28:33.538Z,26.73
2023-01-27T22:29:35.390Z,25.77
2023-01-27T22:30:37.503Z,25.75
2023-01-27T22:31:39.985Z,28.42
2023-01-27T22:32:42.930Z,28.15
2023-01-27T22:33:45.071Z,26.69
2023-01-27T22:34:46.980Z,27.48
2023-01-27T22:35:52.612Z,26.35
2023-01-27T22:36:54.713Z,26.70
2023-01-27T22:37:56.716Z,28.69
2023-01-27T22:38:58.891Z,27.00
2023-01-27T22:40:01.069Z,29.97
2023-01-27T22:41:03.343Z,27.47
2023-01-27T22:42:05.355Z,28.39
2023-01-27T22:43:07.245Z,26.65
2023-01-27T22:44:09.777Z,27.25
2023-01-27T22:45:12.026Z,29.94
2023-01-27T22:46:14.746Z,27.36
2023-01-27T22:47:17.150Z,28.33
2023-01-27T22:48:20.271Z,27.83
2023-01-27T22:49:22.503Z,29.49
2023-01-27T22:50:24.678Z,28.60
2023-01-27T22:51:26.565Z,30.25
2023-01-27T22:52:28.438Z,29.60
2023-01-27T22:53:31.737Z,31.65
2023-01-27T22:54:33.765Z,31.85
2023-01-27T22:55:35.802Z,29.15
2023-01-27T22:56:37.979Z,29.84
2023-01-27T22:57:40.031Z,28.85
2023-01-27T22:58:41.909Z,28.83
2023-01-27T22:59:45.095Z,28.29
2023-01-27T23:00:47.199Z,28.94
2023-01-27T23:01:49.170Z,28.63
2023-01-27T23:02:51.059Z,29.94
2023-01-27T23:03:52.947Z,28.19
2023-01-27T23:04:58.474Z,27.92
2023-01-27T23:06:04.931Z,29.18
2023-01-27T23:07:06.853Z,30.02
2023-01-27T23:08:09.603Z,27.16
2023-01-27T23:09:14.020Z,29.77
2023-01-27T23:10:16.582Z,27.78
2023-01-27T23:11:18.686Z,27.27
2023-01-27T23:12:21.886Z,27.90
2023-01-27T23:13:24.281Z,27.50
2023-01-27T23:14:26.199Z,28.01
2023-01-27T23:15:28.134Z,26.80
2023-01-27T23:16:30.479Z,26.75
2023-01-27T23:17:32.916Z,27.77
2023-01-27T23:18:34.965Z,26.18
2023-01-27T23:19:36.871Z,27.11
2023-01-27T23:20:40.767Z,28.41
2023-01-27T23:21:42.738Z,29.41
2023-01-27T23:22:44.900Z,28.25
2023-01-27T23:23:52.260Z,29.11
2023-01-27T23:24:54.323Z,28.43
2023-01-27T23:25:56.224Z,28.23
2023-01-27T23:26:58.551Z,28.17
2023-01-27T23:28:00.547Z,29.07
2023-01-27T23:29:02.466Z,27.48
2023-01-27T23:30:07.403Z,27.85
2023-01-27T23:31:11.515Z,29.46
2023-01-27T23:32:13.707Z,29.80
2023-01-27T23:33:18.109Z,28.55
2023-01-27T23:34:20.460Z,28.00
2023-01-27T23:35:23.537Z,27.83
2023-01-27T23:36:25.661Z,29.79
2023-01-27T23:37:28.321Z,28.39
2023-01-27T23:38:33.614Z,30.05
2023-01-27T23:39:34.033Z,28.89
2023-01-27T23:40:36.751Z,27.83
2023-01-27T23:41:38.644Z,30.42
2023-01-27T23:42:41.688Z,30.63
2023-01-27T23:43:44.981Z,29.16
2023-01-27T23:44:47.585Z,28.83
2023-01-27T23:45:53.713Z,30.33
2023-01-27T23:46:55.913Z,30.09
2023-01-27T23:47:58.009Z,29.33
2023-01-27T23:48:59.888Z,30.87
2023-01-27T23:50:02.170Z,27.79
2023-01-27T23:51:09.780Z,28.50
2023-01-27T23:52:11.982Z,27.37
2023-01-27T23:53:15.141Z,27.79
2023-01-27T23:54:17.335Z,26.49
2023-01-27T23:55:19.498Z,27.40
2023-01-27T23:56:21.477Z,27.53
2023-01-27T23:57:23.379Z,27.92
2023-01-27T23:58:26.678Z,27.06
2023-01-27T23:59:28.768Z,24.94
